Time;durP1;ratioP1;P1;durP2;ratioP2;P2;SDS_P1;SDS_P2;PMS_P1;PMS_P2;Temp;Humidity;BMP_temperature;BMP_pressure;BME280_temperature;BME280_humidity;BME280_pressure;Samples;Min_cycle;Max_cycle;Signal;HPM_P1;HPM_P2
2023/12/28 00:01:50;;;;;;;3.13;1.35;;;;;;;;;;4927133;29;20502;-87
2023/12/28 00:04:16;;;;;;;3.35;1.50;;;;;;;;;;4943653;29;20031;-86
2023/12/28 00:06:41;;;;;;;2.55;1.42;;;;;;;;;;4927620;29;20494;-87
2023/12/28 00:09:08;;;;;;;2.60;1.25;;;;;;;;;;4919840;29;20064;-87
2023/12/28 00:11:33;;;;;;;3.83;2.15;;;;;;;;;;4935568;29;20071;-87
2023/12/28 00:13:59;;;;;;;8.15;3.83;;;;;;;;;;4919024;29;20036;-88
2023/12/28 00:16:24;;;;;;;3.88;2.28;;;;;;;;;;4923607;29;20141;-88
2023/12/28 00:18:50;;;;;;;3.17;1.73;;;;;;;;;;4920902;29;20087;-87
2023/12/28 00:21:15;;;;;;;2.63;1.50;;;;;;;;;;4929155;29;20410;-87
2023/12/28 00:23:41;;;;;;;3.22;1.60;;;;;;;;;;4928108;29;20040;-87
2023/12/28 00:26:06;;;;;;;2.55;1.35;;;;;;;;;;4930094;29;20080;-87
2023/12/28 00:28:32;;;;;;;3.58;1.40;;;;;;;;;;4923549;29;20032;-87
2023/12/28 00:30:57;;;;;;;2.03;1.20;;;;;;;;;;4919396;29;20573;-88
2023/12/28 00:33:23;;;;;;;2.80;1.30;;;;;;;;;;4933115;29;20035;-86
2023/12/28 00:35:48;;;;;;;2.08;1.20;;;;;;;;;;4920343;29;20032;-87
2023/12/28 00:38:14;;;;;;;2.25;1.50;;;;;;;;;;4928439;29;20561;-88
2023/12/28 00:40:39;;;;;;;4.00;1.50;;;;;;;;;;4927379;29;20414;-87
2023/12/28 00:43:05;;;;;;;2.72;1.55;;;;;;;;;;4924695;29;20047;-88
2023/12/28 00:45:30;;;;;;;2.78;1.40;;;;;;;;;;4929889;29;20417;-87
2023/12/28 00:47:56;;;;;;;2.10;1.40;;;;;;;;;;4930433;29;20082;-87
2023/12/28 00:50:22;;;;;;;2.30;1.30;;;;;;;;;;4919647;29;20407;-86
2023/12/28 00:52:48;;;;;;;3.17;1.40;;;;;;;;;;4914638;29;20074;-87
2023/12/28 00:55:13;;;;;;;2.80;1.50;;;;;;;;;;4906441;29;20029;-87
2023/12/28 00:57:39;;;;;;;2.88;1.58;;;;;;;;;;4927647;29;20044;-88
2023/12/28 01:00:06;;;;;;;3.17;1.50;;;;;;;;;;4934364;29;20050;-88
2023/12/28 01:02:31;;;;;;;2.38;1.25;;;;;;;;;;4938508;29;20063;-87
2023/12/28 01:04:57;;;;;;;2.60;1.15;;;;;;;;;;4933865;29;20039;-87
2023/12/28 01:07:22;;;;;;;2.30;1.35;;;;;;;;;;4950389;29;20039;-88
2023/12/28 01:09:50;;;;;;;2.75;1.35;;;;;;;;;;4930783;29;20046;-87
2023/12/28 01:12:16;;;;;;;3.83;1.40;;;;;;;;;;4947585;29;20115;-88
2023/12/28 01:14:41;;;;;;;2.00;1.20;;;;;;;;;;4925457;29;20055;-85
2023/12/28 01:17:08;;;;;;;2.28;1.30;;;;;;;;;;4942502;29;20036;-86
2023/12/28 01:19:33;;;;;;;2.33;1.20;;;;;;;;;;4947573;29;20040;-86
2023/12/28 01:21:58;;;;;;;2.78;1.33;;;;;;;;;;4929905;29;20407;-86
2023/12/28 01:24:25;;;;;;;2.08;1.30;;;;;;;;;;4929417;29;20071;-86
2023/12/28 01:26:50;;;;;;;2.38;1.30;;;;;;;;;;4944388;29;20486;-88
2023/12/28 01:29:16;;;;;;;2.20;1.30;;;;;;;;;;4930911;29;20042;-86
2023/12/28 01:31:41;;;;;;;1.98;1.30;;;;;;;;;;4936493;29;20451;-87
2023/12/28 01:34:09;;;;;;;2.70;1.20;;;;;;;;;;4918529;29;20040;-86
2023/12/28 01:36:35;;;;;;;2.05;1.20;;;;;;;;;;4919782;29;20044;-87
2023/12/28 01:39:00;;;;;;;1.75;1.15;;;;;;;;;;4925903;29;20039;-87
2023/12/28 01:41:26;;;;;;;2.88;1.20;;;;;;;;;;4929324;29;20035;-87
2023/12/28 01:43:51;;;;;;;1.88;1.10;;;;;;;;;;4928413;29;20043;-86
2023/12/28 01:46:20;;;;;;;1.77;1.02;;;;;;;;;;4928516;29;20555;-85
2023/12/28 01:48:49;;;;;;;2.42;1.17;;;;;;;;;;4928397;29;20036;-87
2023/12/28 01:51:15;;;;;;;1.95;1.20;;;;;;;;;;4925306;29;20084;-88
2023/12/28 01:53:45;;;;;;;1.83;1.00;;;;;;;;;;4906216;29;20036;-86
2023/12/28 01:56:11;;;;;;;1.33;1.00;;;;;;;;;;4918350;29;20036;-86
2023/12/28 01:58:40;;;;;;;1.65;0.93;;;;;;;;;;4936852;29;20063;-86
2023/12/28 02:01:05;;;;;;;3.10;1.00;;;;;;;;;;4926756;29;20031;-86
2023/12/28 02:03:31;;;;;;;1.40;1.00;;;;;;;;;;4927860;29;20048;-88
2023/12/28 02:05:57;;;;;;;1.63;1.13;;;;;;;;;;4927689;29;20031;-86
2023/12/28 02:08:22;;;;;;;2.45;1.00;;;;;;;;;;4927923;29;20047;-87
2023/12/28 02:10:48;;;;;;;2.40;1.17;;;;;;;;;;4930042;29;20067;-85
2023/12/28 02:13:14;;;;;;;1.70;1.10;;;;;;;;;;4919555;29;20040;-87
2023/12/28 02:15:39;;;;;;;1.77;1.20;;;;;;;;;;4917906;29;20075;-86
2023/12/28 02:18:12;;;;;;;1.98;1.10;;;;;;;;;;4917399;29;20505;-87
2023/12/28 02:20:40;;;;;;;2.53;1.20;;;;;;;;;;4909810;29;20407;-87
2023/12/28 02:23:06;;;;;;;1.52;1.10;;;;;;;;;;4928391;29;20051;-86
2023/12/28 02:25:31;;;;;;;1.85;1.10;;;;;;;;;;4926821;29;20039;-88
2023/12/28 02:27:57;;;;;;;1.67;1.10;;;;;;;;;;4923442;29;20059;-87
2023/12/28 02:30:24;;;;;;;1.42;0.90;;;;;;;;;;4925093;29;20478;-87
2023/12/28 02:32:50;;;;;;;1.90;1.08;;;;;;;;;;4919987;29;20041;-89
2023/12/28 02:35:35;;;;;;;1.48;1.00;;;;;;;;;;4918197;29;20530;-87
2023/12/28 02:38:12;;;;;;;1.58;1.10;;;;;;;;;;4923810;28;20411;-87
2023/12/28 02:40:39;;;;;;;1.40;0.90;;;;;;;;;;4934715;29;20024;-87
2023/12/28 02:43:09;;;;;;;1.50;1.00;;;;;;;;;;4908026;29;20503;-87
2023/12/28 02:45:36;;;;;;;2.15;1.00;;;;;;;;;;4927533;29;20527;-87
2023/12/28 02:48:02;;;;;;;3.47;1.02;;;;;;;;;;4926008;29;20052;-86
2023/12/28 02:50:30;;;;;;;1.60;1.00;;;;;;;;;;4929482;29;20039;-87
2023/12/28 02:52:59;;;;;;;1.67;1.00;;;;;;;;;;4924546;29;20024;-87
2023/12/28 02:55:25;;;;;;;1.73;0.93;;;;;;;;;;4932375;29;20078;-87
2023/12/28 02:57:54;;;;;;;1.98;1.10;;;;;;;;;;4916215;29;20036;-87
2023/12/28 03:00:21;;;;;;;1.45;1.00;;;;;;;;;;4938139;29;20514;-87
2023/12/28 03:02:46;;;;;;;1.10;0.80;;;;;;;;;;4920679;29;20063;-86
2023/12/28 03:05:12;;;;;;;1.67;0.90;;;;;;;;;;4928025;29;20525;-86
2023/12/28 03:07:38;;;;;;;1.90;1.00;;;;;;;;;;4925042;29;20095;-87
2023/12/28 03:10:04;;;;;;;1.55;1.08;;;;;;;;;;4925221;29;20040;-87
2023/12/28 03:12:30;;;;;;;1.65;1.20;;;;;;;;;;4941693;29;20567;-86
2023/12/28 03:14:55;;;;;;;1.40;1.08;;;;;;;;;;4923403;29;20027;-87
2023/12/28 03:17:21;;;;;;;1.45;0.93;;;;;;;;;;4917826;29;20538;-87
2023/12/28 03:19:47;;;;;;;1.02;0.90;;;;;;;;;;4934578;29;20063;-86
2023/12/28 03:22:13;;;;;;;1.67;1.00;;;;;;;;;;4920678;29;20046;-87
2023/12/28 03:24:39;;;;;;;1.10;0.90;;;;;;;;;;4939774;29;20040;-87
2023/12/28 03:27:05;;;;;;;1.55;0.80;;;;;;;;;;4924205;29;20032;-88
2023/12/28 03:29:30;;;;;;;2.08;1.10;;;;;;;;;;4923204;29;20032;-87
2023/12/28 03:31:57;;;;;;;1.10;0.88;;;;;;;;;;4925472;29;20537;-87
2023/12/28 03:34:22;;;;;;;1.75;1.00;;;;;;;;;;4926382;29;20067;-87
2023/12/28 03:36:51;;;;;;;2.13;0.90;;;;;;;;;;4916699;29;20047;-87
2023/12/28 03:39:17;;;;;;;1.63;1.00;;;;;;;;;;4920919;29;20414;-86
2023/12/28 03:41:42;;;;;;;1.42;0.77;;;;;;;;;;4921746;29;20036;-87
2023/12/28 03:44:08;;;;;;;1.73;0.93;;;;;;;;;;4938836;29;20036;-87
2023/12/28 03:46:33;;;;;;;1.42;1.00;;;;;;;;;;4925635;29;20035;-86
2023/12/28 03:48:59;;;;;;;1.58;0.88;;;;;;;;;;4923284;29;20051;-86
2023/12/28 03:51:24;;;;;;;1.20;0.90;;;;;;;;;;4918121;29;20399;-88
2023/12/28 03:53:50;;;;;;;1.25;0.90;;;;;;;;;;4923482;29;20118;-85
2023/12/28 03:56:22;;;;;;;1.38;0.80;;;;;;;;;;4923322;29;20043;-85
2023/12/28 03:58:48;;;;;;;1.30;0.82;;;;;;;;;;4932177;29;20036;-88
2023/12/28 04:01:14;;;;;;;2.30;1.00;;;;;;;;;;4934370;28;20026;-87
2023/12/28 04:03:39;;;;;;;1.30;0.90;;;;;;;;;;4921495;29;20115;-87
2023/12/28 04:06:05;;;;;;;1.42;0.80;;;;;;;;;;4939918;29;20074;-86
2023/12/28 04:08:31;;;;;;;5.88;1.10;;;;;;;;;;4939736;29;20039;-89
2023/12/28 04:10:56;;;;;;;1.70;1.00;;;;;;;;;;4924635;29;20036;-88
2023/12/28 04:13:22;;;;;;;2.05;1.00;;;;;;;;;;4909510;29;20050;-86
2023/12/28 04:15:47;;;;;;;1.73;1.10;;;;;;;;;;4942141;29;20123;-86
2023/12/28 04:18:13;;;;;;;1.50;0.90;;;;;;;;;;4932024;28;20036;-87
2023/12/28 04:20:38;;;;;;;2.63;1.20;;;;;;;;;;4920448;29;20032;-87
2023/12/28 04:23:04;;;;;;;1.95;1.10;;;;;;;;;;4919734;29;20115;-87
2023/12/28 04:25:30;;;;;;;2.55;1.08;;;;;;;;;;4920722;29;20051;-87
2023/12/28 04:27:55;;;;;;;2.65;1.17;;;;;;;;;;4918187;29;20122;-88
2023/12/28 04:30:21;;;;;;;1.60;1.00;;;;;;;;;;4924953;29;20039;-88
2023/12/28 04:32:49;;;;;;;1.30;0.90;;;;;;;;;;4922966;29;20040;-88
2023/12/28 04:35:15;;;;;;;2.97;1.10;;;;;;;;;;4929598;29;20027;-87
2023/12/28 04:37:40;;;;;;;1.63;1.00;;;;;;;;;;4923016;29;20040;-86
2023/12/28 04:40:06;;;;;;;1.98;1.10;;;;;;;;;;4942447;29;20035;-88
2023/12/28 04:42:32;;;;;;;3.13;1.20;;;;;;;;;;4945627;28;20044;-88
2023/12/28 04:44:57;;;;;;;2.83;1.20;;;;;;;;;;4932218;29;20120;-87
2023/12/28 04:47:23;;;;;;;2.55;1.60;;;;;;;;;;4927898;29;20044;-88
2023/12/28 04:49:48;;;;;;;4.45;2.35;;;;;;;;;;4929095;29;20047;-87
2023/12/28 04:52:14;;;;;;;2.65;1.52;;;;;;;;;;4944178;28;20031;-88
2023/12/28 04:54:43;;;;;;;2.00;1.20;;;;;;;;;;4941936;29;20090;-88
2023/12/28 04:57:08;;;;;;;2.17;1.05;;;;;;;;;;4932098;29;20047;-87
2023/12/28 04:59:40;;;;;;;2.42;1.10;;;;;;;;;;4936042;29;20044;-87
2023/12/28 05:02:06;;;;;;;1.98;1.20;;;;;;;;;;4922990;29;20652;-88
2023/12/28 05:04:31;;;;;;;3.95;1.90;;;;;;;;;;4924339;29;20112;-87
2023/12/28 05:06:57;;;;;;;2.15;1.20;;;;;;;;;;4922844;29;20476;-88
2023/12/28 05:09:23;;;;;;;1.42;1.00;;;;;;;;;;4927126;29;20055;-87
2023/12/28 05:11:48;;;;;;;1.65;1.05;;;;;;;;;;4941280;29;20056;-88
2023/12/28 05:14:14;;;;;;;1.95;1.10;;;;;;;;;;4924663;29;20035;-88
2023/12/28 05:16:39;;;;;;;2.13;1.20;;;;;;;;;;4927924;29;20044;-88
2023/12/28 05:19:05;;;;;;;2.20;1.40;;;;;;;;;;4923327;29;21001;-87
2023/12/28 05:21:30;;;;;;;2.25;1.40;;;;;;;;;;4924356;29;20087;-87
2023/12/28 05:23:56;;;;;;;3.03;1.13;;;;;;;;;;4936351;29;20497;-87
2023/12/28 05:26:22;;;;;;;2.88;1.15;;;;;;;;;;4937804;29;20122;-87
2023/12/28 05:28:48;;;;;;;1.77;1.10;;;;;;;;;;4909560;29;20454;-86
2023/12/28 05:31:14;;;;;;;1.27;1.00;;;;;;;;;;4942133;29;20498;-88
2023/12/28 05:33:39;;;;;;;1.75;1.15;;;;;;;;;;4924838;29;20490;-87
2023/12/28 05:36:05;;;;;;;1.65;1.17;;;;;;;;;;4923728;29;20037;-88
2023/12/28 05:38:31;;;;;;;1.55;1.15;;;;;;;;;;4916579;29;20445;-87
2023/12/28 05:40:57;;;;;;;1.50;1.10;;;;;;;;;;4934673;29;20658;-88
2023/12/28 05:43:22;;;;;;;2.00;1.10;;;;;;;;;;4921494;29;20418;-87
2023/12/28 05:45:48;;;;;;;4.35;1.27;;;;;;;;;;4925327;29;20051;-87
2023/12/28 05:48:13;;;;;;;3.92;1.50;;;;;;;;;;4917419;29;20054;-87
2023/12/28 05:50:39;;;;;;;1.67;1.20;;;;;;;;;;4926970;29;20060;-86
2023/12/28 05:53:05;;;;;;;2.00;1.02;;;;;;;;;;4923720;29;20047;-85
2023/12/28 05:55:30;;;;;;;1.42;1.00;;;;;;;;;;4924178;29;20443;-88
2023/12/28 05:57:56;;;;;;;3.63;1.30;;;;;;;;;;4924210;29;20050;-87
2023/12/28 06:00:21;;;;;;;2.25;1.23;;;;;;;;;;4927115;29;20092;-87
2023/12/28 06:02:51;;;;;;;1.52;1.02;;;;;;;;;;4920035;29;20055;-86
2023/12/28 06:05:17;;;;;;;1.83;1.13;;;;;;;;;;4926883;29;20115;-88
2023/12/28 06:07:43;;;;;;;2.17;1.33;;;;;;;;;;4909254;29;20070;-89
2023/12/28 06:10:09;;;;;;;2.10;1.40;;;;;;;;;;4927418;29;20044;-88
2023/12/28 06:12:35;;;;;;;2.10;1.30;;;;;;;;;;4926113;29;20454;-87
2023/12/28 06:15:01;;;;;;;3.20;1.20;;;;;;;;;;4943054;29;20063;-88
2023/12/28 06:17:27;;;;;;;2.88;1.77;;;;;;;;;;4929598;29;20060;-86
2023/12/28 06:19:53;;;;;;;3.22;2.13;;;;;;;;;;4926514;29;20040;-87
2023/12/28 06:22:18;;;;;;;3.20;1.90;;;;;;;;;;4923489;29;20028;-87
2023/12/28 06:24:44;;;;;;;3.53;1.90;;;;;;;;;;4927372;29;20414;-87
2023/12/28 06:27:09;;;;;;;2.95;1.70;;;;;;;;;;4922728;29;20036;-87
2023/12/28 06:29:35;;;;;;;5.03;1.65;;;;;;;;;;4931078;29;20040;-87
2023/12/28 06:32:00;;;;;;;2.70;1.63;;;;;;;;;;4923241;29;20075;-86
2023/12/28 06:34:26;;;;;;;2.33;1.60;;;;;;;;;;4924748;29;20375;-86
2023/12/28 06:36:52;;;;;;;1.83;1.13;;;;;;;;;;4924537;29;20562;-88
2023/12/28 06:39:17;;;;;;;1.20;0.90;;;;;;;;;;4921465;29;20067;-87
2023/12/28 06:41:47;;;;;;;1.30;0.98;;;;;;;;;;4929523;29;20550;-87
2023/12/28 06:44:14;;;;;;;2.83;1.10;;;;;;;;;;4912414;29;20044;-87
2023/12/28 06:46:40;;;;;;;1.67;1.10;;;;;;;;;;4930502;29;20094;-86
2023/12/28 06:49:05;;;;;;;1.25;0.90;;;;;;;;;;4927238;29;20447;-86
2023/12/28 06:51:31;;;;;;;2.75;0.98;;;;;;;;;;4920750;29;20050;-85
2023/12/28 06:53:57;;;;;;;4.57;1.20;;;;;;;;;;4926588;28;20063;-88
2023/12/28 06:56:22;;;;;;;1.55;1.00;;;;;;;;;;4924662;29;20123;-87
2023/12/28 06:58:48;;;;;;;1.00;0.80;;;;;;;;;;4922959;29;20115;-85
2023/12/28 07:01:13;;;;;;;1.63;1.15;;;;;;;;;;4931907;29;20449;-85
2023/12/28 07:03:40;;;;;;;2.20;1.00;;;;;;;;;;4916769;29;20471;-87
2023/12/28 07:06:05;;;;;;;1.48;0.93;;;;;;;;;;4923768;29;20032;-86
2023/12/28 07:08:31;;;;;;;1.45;0.90;;;;;;;;;;4935304;29;20429;-86
2023/12/28 07:10:57;;;;;;;1.50;1.00;;;;;;;;;;4922970;29;20062;-85
2023/12/28 07:13:22;;;;;;;1.63;0.90;;;;;;;;;;4922498;29;20044;-85
2023/12/28 07:15:48;;;;;;;9.55;4.03;;;;;;;;;;4924664;28;20044;-85
2023/12/28 07:18:14;;;;;;;2.08;1.05;;;;;;;;;;4926100;29;20048;-86
2023/12/28 07:20:39;;;;;;;1.75;1.10;;;;;;;;;;4922893;29;20144;-86
2023/12/28 07:23:05;;;;;;;1.50;0.98;;;;;;;;;;4921282;29;20047;-86
2023/12/28 07:25:31;;;;;;;1.42;0.85;;;;;;;;;;4916890;29;20043;-87
2023/12/28 07:27:56;;;;;;;1.42;0.90;;;;;;;;;;4917098;29;20076;-84
2023/12/28 07:30:22;;;;;;;1.35;0.90;;;;;;;;;;4921229;29;20035;-86
2023/12/28 07:32:47;;;;;;;1.65;1.08;;;;;;;;;;4924124;29;20036;-86
2023/12/28 07:35:13;;;;;;;2.47;1.00;;;;;;;;;;4926979;29;20044;-85
2023/12/28 07:37:38;;;;;;;1.73;1.10;;;;;;;;;;4922959;29;20383;-88
2023/12/28 07:40:04;;;;;;;2.83;1.70;;;;;;;;;;4925253;29;20032;-87
2023/12/28 07:42:30;;;;;;;2.20;1.17;;;;;;;;;;4919121;29;20122;-86
2023/12/28 07:44:55;;;;;;;1.85;0.90;;;;;;;;;;4921004;29;20036;-90
2023/12/28 07:47:21;;;;;;;1.80;1.02;;;;;;;;;;4917720;29;20534;-88
2023/12/28 07:49:46;;;;;;;1.63;1.10;;;;;;;;;;4920352;29;20035;-88
2023/12/28 07:52:12;;;;;;;2.70;0.90;;;;;;;;;;4920447;29;20822;-87
2023/12/28 07:54:37;;;;;;;1.83;1.10;;;;;;;;;;4922935;29;20114;-86
2023/12/28 07:57:03;;;;;;;2.65;0.98;;;;;;;;;;4923854;29;20044;-87
2023/12/28 07:59:29;;;;;;;1.90;1.10;;;;;;;;;;4921197;29;20056;-87
2023/12/28 08:01:55;;;;;;;2.97;1.40;;;;;;;;;;4935848;28;20131;-88
2023/12/28 08:04:20;;;;;;;3.63;1.95;;;;;;;;;;4938181;28;20059;-88
2023/12/28 08:06:46;;;;;;;2.60;1.38;;;;;;;;;;4915965;29;20502;-88
2023/12/28 08:09:12;;;;;;;3.03;1.25;;;;;;;;;;4938255;28;20036;-90
2023/12/28 08:11:37;;;;;;;2.22;1.40;;;;;;;;;;4926455;29;20040;-89
2023/12/28 08:14:03;;;;;;;2.50;1.42;;;;;;;;;;4928179;29;20036;-88
2023/12/28 08:16:28;;;;;;;2.70;1.50;;;;;;;;;;4926885;29;20039;-88
2023/12/28 08:18:54;;;;;;;1.95;1.30;;;;;;;;;;4927371;29;20642;-88
2023/12/28 08:21:19;;;;;;;2.20;1.25;;;;;;;;;;4926562;29;20083;-89
2023/12/28 08:23:44;;;;;;;1.63;1.10;;;;;;;;;;4928838;29;20115;-89
2023/12/28 08:26:10;;;;;;;1.60;1.00;;;;;;;;;;4935752;29;20036;-87
2023/12/28 08:28:36;;;;;;;2.78;1.50;;;;;;;;;;4921827;29;20397;-87
2023/12/28 08:31:02;;;;;;;4.25;1.75;;;;;;;;;;4929373;29;20130;-87
2023/12/28 08:33:28;;;;;;;3.50;1.80;;;;;;;;;;4922941;29;20127;-88
2023/12/28 08:35:53;;;;;;;8.20;2.55;;;;;;;;;;4927967;29;20043;-89
2023/12/28 08:38:19;;;;;;;4.45;2.20;;;;;;;;;;4926297;29;20471;-90
2023/12/28 08:40:45;;;;;;;2.72;1.00;;;;;;;;;;4924710;29;20043;-87
2023/12/28 08:43:10;;;;;;;2.38;1.30;;;;;;;;;;4919962;29;20052;-88
2023/12/28 08:45:36;;;;;;;3.47;1.60;;;;;;;;;;4931304;29;20048;-88
2023/12/28 08:48:02;;;;;;;3.40;1.40;;;;;;;;;;4918614;29;20158;-88
2023/12/28 08:50:28;;;;;;;1.90;1.10;;;;;;;;;;4937548;29;20495;-89
2023/12/28 08:52:53;;;;;;;2.25;1.30;;;;;;;;;;4923084;29;20036;-88
2023/12/28 08:55:19;;;;;;;4.25;2.13;;;;;;;;;;4927211;29;20131;-88
2023/12/28 08:57:44;;;;;;;4.13;1.90;;;;;;;;;;4940459;29;20486;-88
2023/12/28 09:00:11;;;;;;;2.85;1.38;;;;;;;;;;4924796;29;20040;-88
2023/12/28 09:02:37;;;;;;;2.28;1.20;;;;;;;;;;4906437;29;20064;-89
2023/12/28 09:05:03;;;;;;;2.55;1.30;;;;;;;;;;4922458;29;20402;-88
2023/12/28 09:07:28;;;;;;;2.55;1.10;;;;;;;;;;4937135;29;20044;-88
2023/12/28 09:09:54;;;;;;;4.03;1.20;;;;;;;;;;4923815;29;20047;-89
2023/12/28 09:12:19;;;;;;;6.55;1.52;;;;;;;;;;4925121;29;20043;-89
2023/12/28 09:14:45;;;;;;;2.58;1.40;;;;;;;;;;4928534;29;20115;-88
2023/12/28 09:17:11;;;;;;;1.35;1.00;;;;;;;;;;4925721;29;20486;-89
2023/12/28 09:19:37;;;;;;;2.40;1.50;;;;;;;;;;4924824;29;20036;-90
2023/12/28 09:22:03;;;;;;;2.22;1.30;;;;;;;;;;4926091;29;20024;-88
2023/12/28 09:24:29;;;;;;;1.77;1.10;;;;;;;;;;4925690;29;20478;-88
2023/12/28 09:26:54;;;;;;;1.52;0.88;;;;;;;;;;4939029;28;20074;-89
2023/12/28 09:29:20;;;;;;;0.60;0.60;;;;;;;;;;4918760;29;20024;-89
2023/12/28 09:31:46;;;;;;;1.80;0.90;;;;;;;;;;4915362;29;20044;-88
2023/12/28 09:34:11;;;;;;;2.35;1.50;;;;;;;;;;4935673;29;20100;-88
2023/12/28 09:36:37;;;;;;;2.75;0.88;;;;;;;;;;4930450;29;20058;-87
2023/12/28 09:39:03;;;;;;;1.80;1.10;;;;;;;;;;4925545;29;20044;-88
2023/12/28 09:41:32;;;;;;;2.22;1.25;;;;;;;;;;4930591;29;20043;-87
2023/12/28 09:44:18;;;;;;;1.60;1.10;;;;;;;;;;4929351;29;20066;-89
2023/12/28 09:46:46;;;;;;;1.90;1.20;;;;;;;;;;4909315;29;20049;-88
2023/12/28 09:49:11;;;;;;;2.50;1.40;;;;;;;;;;4927898;29;20039;-89
2023/12/28 09:51:37;;;;;;;2.85;1.70;;;;;;;;;;4926212;29;20043;-88
2023/12/28 09:54:05;;;;;;;5.30;2.60;;;;;;;;;;4926905;29;20048;-88
2023/12/28 09:56:34;;;;;;;5.20;2.67;;;;;;;;;;4926258;29;20087;-89
2023/12/28 09:59:02;;;;;;;7.72;2.65;;;;;;;;;;4929591;29;20512;-89
2023/12/28 10:01:28;;;;;;;4.30;2.40;;;;;;;;;;4926301;29;20027;-90
2023/12/28 10:03:53;;;;;;;3.08;1.50;;;;;;;;;;4923188;29;20046;-87
2023/12/28 10:06:19;;;;;;;2.67;1.30;;;;;;;;;;4926638;29;20019;-88
2023/12/28 10:08:48;;;;;;;2.25;1.17;;;;;;;;;;4918755;29;20553;-89
2023/12/28 10:11:18;;;;;;;1.42;1.00;;;;;;;;;;4923550;29;20055;-88
2023/12/28 10:13:44;;;;;;;1.42;1.00;;;;;;;;;;4923665;29;20528;-89
2023/12/28 10:16:11;;;;;;;1.38;1.00;;;;;;;;;;4925366;29;20040;-89
2023/12/28 10:18:39;;;;;;;4.60;1.30;;;;;;;;;;4928680;29;20072;-88
2023/12/28 10:21:05;;;;;;;4.25;1.60;;;;;;;;;;4924987;29;20074;-89
2023/12/28 10:23:31;;;;;;;1.98;1.30;;;;;;;;;;4923558;29;20020;-89
2023/12/28 10:25:56;;;;;;;2.22;1.27;;;;;;;;;;4922360;29;20040;-91
2023/12/28 10:28:22;;;;;;;2.72;1.40;;;;;;;;;;4919715;29;20099;-88
2023/12/28 10:30:47;;;;;;;3.47;1.52;;;;;;;;;;4919816;29;20463;-87
2023/12/28 10:33:15;;;;;;;3.20;1.30;;;;;;;;;;4913781;29;20040;-89
2023/12/28 10:35:43;;;;;;;3.97;1.90;;;;;;;;;;4907022;29;20119;-88
2023/12/28 10:38:12;;;;;;;2.45;1.33;;;;;;;;;;4927093;29;20035;-88
2023/12/28 10:40:39;;;;;;;2.38;1.20;;;;;;;;;;4925085;29;20035;-90
2023/12/28 10:43:10;;;;;;;2.13;1.20;;;;;;;;;;4961310;23;20083;-88
2023/12/28 10:46:01;;;;;;;2.97;1.50;;;;;;;;;;4930156;29;20774;-88
2023/12/28 10:49:08;;;;;;;3.00;1.80;;;;;;;;;;4935104;29;20145;-88
2023/12/28 10:51:48;;;;;;;2.97;1.40;;;;;;;;;;4922109;29;20060;-88
2023/12/28 10:54:50;;;;;;;1.98;1.30;;;;;;;;;;4928899;29;20040;-88
2023/12/28 10:58:09;;;;;;;1.73;1.27;;;;;;;;;;4931906;29;20047;-88
2023/12/28 11:00:57;;;;;;;2.13;1.25;;;;;;;;;;4941678;29;20063;-90
2023/12/28 11:03:40;;;;;;;2.55;1.50;;;;;;;;;;4928117;29;20529;-88
2023/12/28 11:06:21;;;;;;;2.50;1.50;;;;;;;;;;4920284;29;20036;-88
2023/12/28 11:08:54;;;;;;;2.42;1.20;;;;;;;;;;4925306;29;20063;-89
2023/12/28 11:11:23;;;;;;;3.47;1.40;;;;;;;;;;4906500;29;20060;-88
2023/12/28 11:14:00;;;;;;;2.63;1.30;;;;;;;;;;4934472;29;20094;-87
2023/12/28 11:16:30;;;;;;;2.88;1.50;;;;;;;;;;4930330;29;20055;-88
2023/12/28 11:19:02;;;;;;;1.90;1.40;;;;;;;;;;4946117;29;20035;-88
2023/12/28 11:21:36;;;;;;;3.53;1.40;;;;;;;;;;4926838;29;20038;-89
2023/12/28 11:24:06;;;;;;;2.80;1.30;;;;;;;;;;4919754;29;20039;-88
2023/12/28 11:26:39;;;;;;;6.28;1.63;;;;;;;;;;4929833;29;20058;-88
2023/12/28 11:29:11;;;;;;;6.47;3.85;;;;;;;;;;4924318;29;20103;-87
2023/12/28 11:31:36;;;;;;;5.00;2.50;;;;;;;;;;4919803;29;20091;-89
2023/12/28 11:34:17;;;;;;;3.47;1.67;;;;;;;;;;4942256;29;20122;-88
2023/12/28 11:37:04;;;;;;;3.08;1.50;;;;;;;;;;4929192;29;20114;-88
2023/12/28 11:39:33;;;;;;;2.83;1.50;;;;;;;;;;4944798;29;20058;-87
2023/12/28 11:42:05;;;;;;;5.13;1.80;;;;;;;;;;4928809;29;20067;-88
2023/12/28 11:44:51;;;;;;;2.60;1.10;;;;;;;;;;4927769;29;20048;-88
2023/12/28 11:47:27;;;;;;;2.88;1.63;;;;;;;;;;4924824;29;20046;-88
2023/12/28 11:49:58;;;;;;;2.80;1.33;;;;;;;;;;4937585;29;20134;-88
2023/12/28 11:52:27;;;;;;;2.28;1.33;;;;;;;;;;4919545;29;20120;-88
2023/12/28 11:55:02;;;;;;;3.35;1.63;;;;;;;;;;4928178;29;20036;-89
2023/12/28 11:57:31;;;;;;;2.45;1.40;;;;;;;;;;4925794;29;20071;-88
2023/12/28 12:00:49;;;;;;;2.55;1.30;;;;;;;;;;4926980;29;20437;-89
2023/12/28 12:03:14;;;;;;;2.22;1.40;;;;;;;;;;4930763;29;20616;-86
2023/12/28 12:05:40;;;;;;;2.10;1.42;;;;;;;;;;4930555;29;20039;-87
2023/12/28 12:08:08;;;;;;;2.13;1.40;;;;;;;;;;4932880;29;20449;-88
2023/12/28 12:10:35;;;;;;;2.55;1.38;;;;;;;;;;4919366;29;20111;-86
2023/12/28 12:13:03;;;;;;;2.28;1.40;;;;;;;;;;4919416;29;20840;-86
2023/12/28 12:15:34;;;;;;;1.98;1.27;;;;;;;;;;4924171;29;20044;-87
2023/12/28 12:18:03;;;;;;;4.80;1.42;;;;;;;;;;4926526;29;20031;-87
2023/12/28 12:20:29;;;;;;;1.92;1.30;;;;;;;;;;4931558;29;20051;-87
2023/12/28 12:22:59;;;;;;;2.33;1.40;;;;;;;;;;4929195;29;20033;-87
2023/12/28 12:25:24;;;;;;;3.33;1.67;;;;;;;;;;4928935;29;20066;-87
2023/12/28 12:27:50;;;;;;;3.25;1.90;;;;;;;;;;4926674;29;20060;-86
2023/12/28 12:30:16;;;;;;;2.85;1.60;;;;;;;;;;4925325;29;20063;-87
2023/12/28 12:32:42;;;;;;;3.10;1.65;;;;;;;;;;4921748;29;20550;-86
2023/12/28 12:35:10;;;;;;;3.97;2.00;;;;;;;;;;4922846;29;20155;-87
2023/12/28 12:37:36;;;;;;;5.65;2.20;;;;;;;;;;4931476;29;20043;-86
2023/12/28 12:40:05;;;;;;;3.28;1.75;;;;;;;;;;4929361;29;20175;-87
2023/12/28 12:42:30;;;;;;;3.58;1.52;;;;;;;;;;4929149;29;20101;-87
2023/12/28 12:44:56;;;;;;;2.30;1.27;;;;;;;;;;4930301;29;20032;-89
2023/12/28 12:47:22;;;;;;;3.13;1.50;;;;;;;;;;4933625;29;20394;-87
2023/12/28 12:49:51;;;;;;;3.58;1.63;;;;;;;;;;4921470;29;20046;-89
2023/12/28 12:52:16;;;;;;;4.13;1.55;;;;;;;;;;4937145;29;20028;-88
2023/12/28 12:54:42;;;;;;;3.03;1.30;;;;;;;;;;4922758;29;20425;-88
2023/12/28 12:57:08;;;;;;;3.08;1.40;;;;;;;;;;4932631;29;20091;-88
2023/12/28 12:59:33;;;;;;;3.47;1.40;;;;;;;;;;4937785;29;20417;-89
2023/12/28 13:02:00;;;;;;;6.20;1.63;;;;;;;;;;4933080;29;20521;-90
2023/12/28 13:04:26;;;;;;;4.20;2.20;;;;;;;;;;4931551;29;20114;-88
2023/12/28 13:06:52;;;;;;;3.15;1.80;;;;;;;;;;4932494;29;20127;-86
2023/12/28 13:09:18;;;;;;;2.70;1.60;;;;;;;;;;4936545;29;20103;-87
2023/12/28 13:11:43;;;;;;;3.80;1.67;;;;;;;;;;4926549;29;20553;-88
2023/12/28 13:14:09;;;;;;;6.13;1.80;;;;;;;;;;4940528;29;20530;-88
2023/12/28 13:16:34;;;;;;;3.25;1.98;;;;;;;;;;4928973;29;20039;-88
2023/12/28 13:19:00;;;;;;;3.30;2.20;;;;;;;;;;4948905;29;20125;-88
2023/12/28 13:21:25;;;;;;;3.72;2.25;;;;;;;;;;4928143;29;20118;-88
2023/12/28 13:23:51;;;;;;;4.20;2.00;;;;;;;;;;4931279;29;20110;-86
2023/12/28 13:26:17;;;;;;;4.95;2.50;;;;;;;;;;4927754;29;20210;-86
2023/12/28 13:28:42;;;;;;;3.42;1.90;;;;;;;;;;4933797;29;20082;-85
2023/12/28 13:31:08;;;;;;;2.40;1.70;;;;;;;;;;4937344;29;20511;-88
2023/12/28 13:33:33;;;;;;;5.60;1.90;;;;;;;;;;4936165;29;20052;-87
2023/12/28 13:35:59;;;;;;;3.33;1.90;;;;;;;;;;4935103;29;20119;-89
2023/12/28 13:38:24;;;;;;;2.67;1.60;;;;;;;;;;4930283;29;20039;-89
2023/12/28 13:40:50;;;;;;;2.58;1.50;;;;;;;;;;4930653;29;20064;-89
2023/12/28 13:43:16;;;;;;;3.08;1.52;;;;;;;;;;4931421;29;20067;-88
2023/12/28 13:45:41;;;;;;;4.70;2.10;;;;;;;;;;4944604;28;20036;-89
2023/12/28 13:48:08;;;;;;;3.40;2.20;;;;;;;;;;4929951;29;20043;-88
2023/12/28 13:50:33;;;;;;;4.88;2.28;;;;;;;;;;4929798;29;20035;-89
2023/12/28 13:52:59;;;;;;;4.25;2.28;;;;;;;;;;4939677;29;20040;-91
2023/12/28 13:55:25;;;;;;;4.55;1.83;;;;;;;;;;4920490;29;20039;-89
2023/12/28 13:57:50;;;;;;;2.65;1.30;;;;;;;;;;4934891;29;20082;-88
2023/12/28 14:00:16;;;;;;;2.78;1.60;;;;;;;;;;4933465;29;20071;-89
2023/12/28 14:02:41;;;;;;;2.90;1.42;;;;;;;;;;4928107;29;20031;-89
2023/12/28 14:05:07;;;;;;;3.40;1.77;;;;;;;;;;4929236;29;20046;-88
2023/12/28 14:07:33;;;;;;;3.28;1.60;;;;;;;;;;4933059;29;20078;-88
2023/12/28 14:09:58;;;;;;;2.53;1.58;;;;;;;;;;4930620;29;20036;-89
2023/12/28 14:12:24;;;;;;;2.88;1.70;;;;;;;;;;4932570;29;20032;-89
2023/12/28 14:14:49;;;;;;;6.38;3.05;;;;;;;;;;4932571;29;20127;-89
2023/12/28 14:17:19;;;;;;;6.88;3.42;;;;;;;;;;4930154;29;20044;-89
2023/12/28 14:19:45;;;;;;;8.55;5.03;;;;;;;;;;4931281;29;20040;-88
2023/12/28 14:22:11;;;;;;;9.77;5.00;;;;;;;;;;4932634;29;20040;-89
2023/12/28 14:24:38;;;;;;;6.68;3.33;;;;;;;;;;4928386;29;20040;-87
2023/12/28 14:27:04;;;;;;;8.77;4.07;;;;;;;;;;4931227;29;20032;-86
2023/12/28 14:29:30;;;;;;;9.55;4.68;;;;;;;;;;4940620;29;20490;-85
2023/12/28 14:31:56;;;;;;;9.15;3.83;;;;;;;;;;4929881;29;20043;-87
2023/12/28 14:34:21;;;;;;;6.65;3.65;;;;;;;;;;4926282;29;20028;-87
2023/12/28 14:36:50;;;;;;;4.55;3.10;;;;;;;;;;4921516;29;20043;-87
2023/12/28 14:39:19;;;;;;;4.38;2.40;;;;;;;;;;4926320;29;20047;-86
2023/12/28 14:41:45;;;;;;;5.25;2.08;;;;;;;;;;4928553;29;20036;-83
2023/12/28 14:44:11;;;;;;;3.58;2.20;;;;;;;;;;4928330;29;20127;-85